.
WxDataArchive / Data Records for 2008-09-21
2008-09-20 September 2008 2008-09-22

Data Records for Sunday, 21 September 2008

Time	Temp	Chill	HIndex	Humid	Dewpt	 Wind 	HiWind	WindDir	Rain 	Barom 
-----	----	-----	------	-----	-----	------	------	-------	-----	----- 
00:00	57.6	57.6	57.6	95	56.2	0	0	---	0.00	30.151 
00:05	57.5	57.5	57.5	95	56.1	0	0	---	0.00	30.148 
00:10	57.3	57.3	57.3	95	55.9	0	0	---	0.00	30.149 
00:15	57.3	57.3	57.3	95	55.9	0	0	---	0.00	30.151 
00:20	57.2	57.2	57.2	95	55.8	0	0	---	0.00	30.150 
00:25	57.0	57.0	57.0	95	55.6	0	0	---	0.00	30.152 
00:30	56.9	56.9	56.9	95	55.5	0	0	---	0.00	30.152 
00:35	56.7	56.7	56.7	95	55.3	0	0	---	0.00	30.152 
00:40	56.7	56.7	56.7	95	55.3	0	0	---	0.00	30.153 
00:45	56.6	56.6	56.6	95	55.2	0	0	---	0.00	30.152 
00:50	56.6	56.6	56.6	95	55.2	0	0	---	0.00	30.153 
00:55	56.6	56.6	56.6	95	55.2	0	0	---	0.00	30.154 
01:00	56.5	56.5	56.5	95	55.1	0	0	---	0.00	30.156 
01:05	56.3	56.3	56.3	95	54.9	0	0	---	0.00	30.157 
01:10	56.2	56.2	56.2	95	54.8	0	0	---	0.00	30.159 
01:15	56.2	56.2	56.2	95	54.8	0	0	---	0.00	30.162 
01:20	56.2	56.2	56.2	95	54.8	0	0	---	0.00	30.162 
01:25	56.2	56.2	56.2	95	54.8	0	0	---	0.00	30.161 
01:30	56.0	56.0	56.0	95	54.6	0	0	---	0.00	30.161 
01:35	56.0	56.0	56.0	95	54.6	0	0	---	0.00	30.161 
01:40	56.0	56.0	56.0	95	54.6	0	0	---	0.00	30.160 
01:45	55.9	55.9	55.9	95	54.5	0	0	---	0.00	30.161 
01:50	55.9	55.9	55.9	96	54.8	0	0	---	0.00	30.161 
01:55	55.9	55.9	55.9	96	54.8	0	0	---	0.00	30.161 
02:00	55.7	55.7	55.7	96	54.6	0	0	---	0.00	30.161 
02:05	55.7	55.7	55.7	96	54.6	0	0	---	0.00	30.160 
02:10	55.6	55.6	55.6	96	54.5	0	0	---	0.00	30.157 
02:15	55.6	55.6	55.6	96	54.5	0	0	---	0.00	30.159 
02:20	55.4	55.4	55.4	96	54.3	0	0	---	0.00	30.159 
02:25	55.4	55.4	55.4	96	54.3	0	0	---	0.00	30.160 
02:30	55.3	55.3	55.3	96	54.2	0	0	---	0.00	30.161 
02:35	55.3	55.3	55.3	96	54.2	0	0	---	0.00	30.162 
02:40	55.1	55.1	55.1	96	54.0	0	0	---	0.00	30.161 
02:45	55.1	55.1	55.1	96	54.0	0	0	---	0.00	30.162 
02:50	55.0	55.0	55.0	96	53.9	0	0	---	0.00	30.162 
02:55	55.0	55.0	55.0	96	53.9	0	0	---	0.00	30.162 
03:00	54.8	54.8	54.8	96	53.7	0	0	---	0.00	30.159 
03:05	54.8	54.8	54.8	96	53.7	0	0	---	0.00	30.160 
03:10	54.8	54.8	54.8	96	53.7	0	0	---	0.00	30.159 
03:15	54.8	54.8	54.8	96	53.7	0	0	---	0.00	30.158 
03:20	54.7	54.7	54.7	96	53.6	0	0	---	0.00	30.159 
03:25	54.7	54.7	54.7	96	53.6	0	0	---	0.00	30.161 
03:30	54.5	54.5	54.5	96	53.4	0	0	---	0.00	30.158 
03:35	54.5	54.5	54.5	96	53.4	0	0	---	0.00	30.158 
03:40	54.5	54.5	54.5	96	53.4	0	0	---	0.00	30.157 
03:45	54.5	54.5	54.5	96	53.4	0	0	---	0.00	30.159 
03:50	54.4	54.4	54.4	96	53.3	0	0	---	0.00	30.160 
03:55	54.4	54.4	54.4	96	53.3	0	0	---	0.00	30.160 
04:00	54.5	54.5	54.5	96	53.4	0	0	---	0.00	30.161 
04:05	54.4	54.4	54.4	96	53.3	0	0	---	0.00	30.165 
04:10	54.4	54.4	54.4	96	53.3	0	0	---	0.00	30.166 
04:15	54.4	54.4	54.4	96	53.3	0	0	---	0.00	30.166 
04:20	54.2	54.2	54.2	96	53.1	0	0	---	0.00	30.167 
04:25	54.2	54.2	54.2	96	53.1	0	0	---	0.00	30.168 
04:30	54.2	54.2	54.2	96	53.1	0	0	---	0.00	30.168 
04:35	54.1	54.1	54.1	96	53.0	0	0	---	0.00	30.168 
04:40	54.1	54.1	54.1	96	53.0	0	0	---	0.00	30.168 
04:45	53.9	53.9	53.9	96	52.8	0	0	---	0.00	30.168 
04:50	53.9	53.9	53.9	96	52.8	0	0	---	0.00	30.168 
04:55	53.8	53.8	53.8	96	52.7	0	0	---	0.00	30.169 
05:00	53.8	53.8	53.8	96	52.7	0	0	---	0.00	30.169 
05:05	53.8	53.8	53.8	96	52.7	0	0	---	0.00	30.170 
05:10	53.8	53.8	53.8	96	52.7	0	0	---	0.00	30.171 
05:15	53.6	53.6	53.6	96	52.5	0	0	---	0.00	30.173 
05:20	53.6	53.6	53.6	96	52.5	0	0	---	0.00	30.175 
05:25	53.5	53.5	53.5	96	52.4	0	0	---	0.00	30.175 
05:30	53.6	53.6	53.6	96	52.5	0	0	---	0.00	30.180 
05:35	53.6	53.6	53.6	96	52.5	0	0	---	0.00	30.181 
05:40	53.5	53.5	53.5	96	52.4	0	0	---	0.00	30.184 
05:45	53.5	53.5	53.5	96	52.4	0	0	---	0.00	30.186 
05:50	53.5	53.5	53.5	96	52.4	0	0	---	0.00	30.187 
05:55	53.3	53.3	53.3	96	52.2	0	0	---	0.00	30.190 
06:00	53.2	53.2	53.2	96	52.1	0	0	---	0.00	30.191 
06:05	53.2	53.2	53.2	96	52.1	0	0	---	0.00	30.198 
06:10	53.2	53.2	53.2	96	52.1	0	0	---	0.00	30.202 
06:15	53.2	53.2	53.2	96	52.1	0	0	---	0.00	30.205 
06:20	53.2	53.2	53.2	96	52.1	0	0	---	0.00	30.206 
06:25	53.2	53.2	53.2	96	52.1	0	0	---	0.00	30.206 
06:30	53.2	53.2	53.2	96	52.1	0	0	---	0.00	30.207 
06:35	53.2	53.2	53.2	96	52.1	0	0	---	0.00	30.209 
06:40	53.2	53.2	53.2	96	52.1	0	0	---	0.00	30.211 
06:45	53.3	53.3	53.3	96	52.2	0	0	---	0.00	30.212 
06:50	53.3	53.3	53.3	97	52.5	0	0	---	0.00	30.214 
06:55	53.5	53.5	53.5	97	52.7	0	0	---	0.00	30.214 
07:00	53.5	53.5	53.5	97	52.7	0	0	---	0.00	30.219 
07:05	53.8	53.8	53.8	97	53.0	0	0	---	0.00	30.224 
07:10	53.9	53.9	53.9	97	53.1	0	0	---	0.00	30.225 
07:15	54.4	54.4	54.4	97	53.6	0	0	---	0.00	30.226 
07:20	54.7	54.7	54.7	97	53.9	0	0	---	0.00	30.227 
07:25	55.0	55.0	55.0	97	54.2	0	0	---	0.00	30.227 
07:30	55.6	55.6	55.6	97	54.8	0	0	---	0.00	30.228 
07:35	55.9	55.9	55.9	97	55.1	0	0	---	0.00	30.229 
07:40	56.5	56.5	56.5	97	55.7	0	0	---	0.00	30.230 
07:45	57.0	57.0	57.0	97	56.2	0	0	---	0.00	30.231 
07:50	57.5	57.5	57.5	97	56.7	0	0	---	0.00	30.232 
07:55	58.1	58.1	58.1	97	57.3	0	0	---	0.00	30.232 
08:00	58.7	58.7	58.7	97	57.8	0	0	---	0.00	30.232 
08:05	59.2	59.2	59.2	97	58.3	0	1	248	0.00	30.234 
08:10	59.8	59.8	59.8	97	58.9	0	0	---	0.00	30.234 
08:15	60.4	60.4	60.4	97	59.5	0	0	---	0.00	30.235 
08:20	60.9	60.9	60.9	97	60.0	0	1	248	0.00	30.236 
08:25	61.2	61.2	61.2	97	60.3	0	1	248	0.00	30.236 
08:30	61.8	61.8	61.8	97	60.9	0	1	248	0.00	30.234 
08:35	62.1	62.1	62.1	97	61.2	0	1	248	0.00	30.234 
08:40	62.4	62.4	62.4	97	61.5	0	2	248	0.00	30.234 
08:45	63.1	63.1	63.1	97	62.2	0	0	---	0.00	30.235 
08:50	63.7	63.7	63.7	96	62.5	1	3	248	0.00	30.236 
08:55	64.5	64.5	64.5	93	62.4	0	2	248	0.00	30.235 
09:00	65.5	65.5	65.5	90	62.5	0	2	248	0.00	30.238 
09:05	66.3	66.3	66.3	86	62.0	0	2	248	0.00	30.240 
09:10	67.3	67.3	67.3	83	62.0	0	2	248	0.00	30.242 
09:15	68.3	68.3	68.3	78	61.2	0	3	248	0.00	30.242 
09:20	69.3	69.3	69.3	75	61.0	0	2	248	0.00	30.245 
09:25	70.1	70.1	70.1	73	61.0	1	3	158	0.00	30.244 
09:30	70.6	70.6	70.6	72	61.1	1	3	135	0.00	30.245 
09:35	71.1	71.1	71.1	72	61.6	1	2	135	0.00	30.244 
09:40	71.8	71.8	71.8	73	62.7	0	2	135	0.00	30.243 
09:45	72.3	72.3	72.3	71	62.4	0	2	135	0.00	30.243 
09:50	72.8	72.8	72.8	69	62.0	0	1	135	0.00	30.243 
09:55	73.3	73.3	73.3	67	61.7	0	2	135	0.00	30.243 
10:00	73.9	73.9	73.9	65	61.4	0	2	135	0.00	30.242 
10:05	74.6	74.6	74.6	62	60.7	0	1	135	0.00	30.243 
10:10	74.9	74.9	74.9	60	60.1	1	3	135	0.00	30.243 
10:15	75.1	75.1	77.4	61	60.7	1	4	90	0.00	30.243 
10:20	75.3	75.3	77.5	62	61.4	1	3	112	0.00	30.244 
10:25	75.3	75.3	77.5	60	60.4	1	5	90	0.00	30.244 
10:30	75.4	75.4	77.7	57	59.1	1	4	90	0.00	30.244 
10:35	75.8	75.8	77.9	58	59.9	1	2	90	0.00	30.242 
10:40	76.3	76.3	78.3	56	59.4	1	4	90	0.00	30.242 
10:45	76.7	76.7	78.5	56	59.8	1	4	90	0.00	30.241 
10:50	76.5	76.5	78.4	56	59.6	2	4	90	0.00	30.242 
10:55	76.5	76.5	78.4	55	59.1	2	4	90	0.00	30.241 
11:00	76.7	76.7	78.5	56	59.8	1	4	90	0.00	30.241 
11:05	76.7	76.7	78.5	55	59.3	1	3	90	0.00	30.241 
11:10	77.0	77.0	78.7	56	60.1	0	2	90	0.00	30.241 
11:15	77.4	77.4	79.0	56	60.5	1	3	90	0.00	30.242 
11:20	77.7	77.7	79.2	54	59.7	0	2	90	0.00	30.239 
11:25	78.3	78.3	79.8	56	61.3	1	3	90	0.00	30.240 
11:30	78.3	78.3	79.6	53	59.7	1	4	68	0.00	30.240 
11:35	78.3	78.3	79.5	51	58.7	1	5	112	0.00	30.240 
11:40	78.3	78.3	79.6	53	59.7	1	3	112	0.00	30.239 
11:45	78.5	78.5	79.8	53	59.9	1	2	112	0.00	30.239 
11:50	78.6	78.6	79.9	54	60.5	1	4	112	0.00	30.239 
11:55	78.8	78.8	80.0	53	60.2	0	2	112	0.00	30.239 
12:00	79.0	79.0	80.2	53	60.4	1	4	135	0.00	30.237 
12:05	79.0	79.0	80.0	50	58.7	1	4	90	0.00	30.236 
12:10	78.8	78.8	80.1	54	60.7	0	3	90	0.00	30.232 
12:15	78.6	78.6	79.7	50	58.4	1	5	112	0.00	30.229 
12:20	78.8	78.8	79.8	50	58.6	1	4	112	0.00	30.228 
12:25	78.3	78.3	79.4	50	58.1	1	3	112	0.00	30.226 
12:30	78.3	78.3	79.7	54	60.3	1	6	112	0.00	30.227 
12:35	78.3	78.3	79.5	51	58.7	2	4	112	0.00	30.227 
12:40	78.3	78.3	79.6	52	59.2	2	4	112	0.00	30.227 
12:45	78.3	78.3	79.4	50	58.1	1	3	112	0.00	30.226 
12:50	78.6	78.6	79.7	50	58.4	1	4	112	0.00	30.224 
12:55	79.0	79.0	80.0	50	58.7	1	4	90	0.00	30.222 
13:00	79.0	79.0	79.8	48	57.6	2	5	90	0.00	30.220 
13:05	78.8	78.8	79.7	49	58.0	2	6	90	0.00	30.221 
13:10	79.0	79.0	79.8	48	57.6	1	3	112	0.00	30.218 
13:15	79.2	79.2	79.9	47	57.2	1	4	112	0.00	30.215 
13:20	79.0	79.0	79.9	49	58.2	1	6	90	0.00	30.213 
13:25	79.2	79.2	80.1	49	58.4	1	3	68	0.00	30.211 
13:30	79.2	79.2	80.0	48	57.8	2	5	90	0.00	30.211 
13:35	79.2	79.2	80.1	50	58.9	1	4	112	0.00	30.210 
13:40	79.2	79.2	80.0	48	57.8	1	6	112	0.00	30.210 
13:45	79.2	79.2	79.9	47	57.2	2	6	112	0.00	30.209 
13:50	79.2	79.2	80.1	50	58.9	1	3	90	0.00	30.207 
13:55	79.2	79.2	80.1	50	58.9	1	3	90	0.00	30.201 
14:00	79.4	79.4	80.1	48	58.0	2	6	112	0.00	30.200 
14:05	79.6	79.6	80.3	48	58.2	1	4	112	0.00	30.197 
14:10	79.8	79.8	80.4	47	57.8	2	5	90	0.00	30.196 
14:15	79.8	79.8	80.6	50	59.5	1	3	90	0.00	30.196 
14:20	79.8	79.8	80.3	46	57.2	2	4	90	0.00	30.196 
14:25	79.8	79.8	80.2	45	56.5	1	5	112	0.00	30.195 
14:30	79.9	79.9	80.4	47	57.8	1	5	135	0.00	30.194 
14:35	79.8	79.8	80.4	47	57.8	2	4	112	0.00	30.194 
14:40	79.8	79.8	80.6	50	59.5	0	4	112	0.00	30.193 
14:45	79.6	79.6	80.1	46	57.0	2	5	112	0.00	30.192 
14:50	79.6	79.6	80.3	48	58.2	1	3	90	0.00	30.193 
14:55	79.6	79.6	80.2	47	57.6	2	6	112	0.00	30.193 
15:00	79.8	79.8	80.4	47	57.8	1	3	112	0.00	30.192 
15:05	79.9	79.9	80.6	49	59.0	0	3	112	0.00	30.193 
15:10	80.1	80.1	80.8	49	59.2	1	4	112	0.00	30.191 
15:15	79.9	79.9	80.4	46	57.2	2	6	112	0.00	30.190 
15:20	79.8	79.8	80.5	48	58.3	1	5	90	0.00	30.190 
15:25	79.6	79.6	80.1	46	57.0	1	4	90	0.00	30.188 
15:30	79.6	79.6	80.1	46	57.0	1	5	112	0.00	30.188 
15:35	79.6	79.6	80.0	45	56.4	1	3	112	0.00	30.185 
15:40	79.6	79.6	80.0	45	56.4	2	4	90	0.00	30.186 
15:45	79.6	79.6	80.4	49	58.7	1	3	90	0.00	30.186 
15:50	79.4	79.4	80.0	46	56.8	1	4	112	0.00	30.186 
15:55	79.0	79.0	79.8	47	57.0	1	4	112	0.00	30.183 
16:00	79.0	79.0	79.7	46	56.4	2	4	90	0.00	30.184 
16:05	78.8	78.8	79.7	49	58.0	2	5	112	0.00	30.187 
16:10	78.8	78.8	79.7	48	57.4	0	3	112	0.00	30.188 
16:15	78.8	78.8	79.6	46	56.2	1	4	112	0.00	30.188 
16:20	79.0	79.0	79.8	47	57.0	2	6	112	0.00	30.191 
16:25	78.8	78.8	79.6	47	56.8	1	2	135	0.00	30.190 
16:30	78.6	78.6	79.4	46	56.1	1	2	135	0.00	30.192 
16:35	78.6	78.6	79.5	48	57.2	1	4	112	0.00	30.195 
16:40	78.6	78.6	79.5	48	57.2	1	5	90	0.00	30.194 
16:45	78.5	78.5	79.5	49	57.7	0	1	90	0.00	30.193 
16:50	78.3	78.3	79.3	47	56.4	2	6	90	0.00	30.195 
16:55	78.3	78.3	79.4	49	57.5	1	3	112	0.00	30.196 
17:00	77.9	77.9	79.1	48	56.6	1	4	112	0.00	30.197 
17:05	77.7	77.7	78.9	48	56.4	2	5	90	0.00	30.199 
17:10	77.7	77.7	79.0	50	57.6	2	5	112	0.00	30.201 
17:15	77.6	77.6	79.0	50	57.5	2	4	68	0.00	30.202 
17:20	77.6	77.6	78.9	49	56.9	1	3	68	0.00	30.203 
17:25	77.4	77.4	78.8	50	57.3	2	7	90	0.00	30.204 
17:30	77.2	77.2	78.7	50	57.1	1	2	90	0.00	30.206 
17:35	77.0	77.0	78.6	50	56.9	1	3	90	0.00	30.206 
17:40	76.8	76.8	78.5	52	57.8	1	4	112	0.00	30.206 
17:45	76.5	76.5	78.4	53	58.1	1	3	112	0.00	30.207 
17:50	76.3	76.3	78.3	56	59.4	0	2	112	0.00	30.210 
17:55	75.8	75.8	77.9	56	59.0	0	2	112	0.00	30.212 
18:00	75.4	75.4	77.7	57	59.1	0	1	112	0.00	30.211 
18:05	75.1	75.1	77.5	57	58.8	0	2	112	0.00	30.212 
18:10	74.7	74.7	74.7	59	59.4	0	2	112	0.00	30.214 
18:15	74.4	74.4	74.4	59	59.1	1	2	112	0.00	30.215 
18:20	74.2	74.2	74.2	60	59.4	1	2	112	0.00	30.216 
18:25	73.9	73.9	73.9	61	59.6	1	2	112	0.00	30.217 
18:30	73.5	73.5	73.5	61	59.2	0	2	112	0.00	30.217 
18:35	73.2	73.2	73.2	62	59.4	1	3	112	0.00	30.220 
18:40	72.8	72.8	72.8	62	59.0	0	2	112	0.00	30.223 
18:45	72.5	72.5	72.5	63	59.2	0	1	112	0.00	30.222 
18:50	72.1	72.1	72.1	64	59.2	0	2	90	0.00	30.221 
18:55	71.8	71.8	71.8	65	59.4	0	2	90	0.00	30.221 
19:00	71.5	71.5	71.5	66	59.5	0	2	90	0.00	30.225 
19:05	71.1	71.1	71.1	66	59.2	0	1	90	0.00	30.224 
19:10	70.9	70.9	70.9	67	59.4	0	2	90	0.00	30.226 
19:15	70.6	70.6	70.6	67	59.1	0	2	90	0.00	30.229 
19:20	70.4	70.4	70.4	68	59.3	1	3	90	0.00	30.231 
19:25	70.3	70.3	70.3	68	59.2	1	3	112	0.00	30.231 
19:30	70.1	70.1	70.1	68	59.0	1	4	112	0.00	30.232 
19:35	69.9	69.9	69.9	69	59.3	1	3	112	0.00	30.232 
19:40	69.8	69.8	69.8	69	59.2	1	3	90	0.00	30.234 
19:45	69.4	69.4	69.4	70	59.2	1	3	90	0.00	30.235 
19:50	69.3	69.3	69.3	71	59.5	1	3	90	0.00	30.239 
19:55	68.9	68.9	68.9	71	59.1	1	4	90	0.00	30.240 
20:00	68.6	68.6	68.6	72	59.2	1	3	90	0.00	30.242 
20:05	68.4	68.4	68.4	73	59.4	1	3	112	0.00	30.241 
20:10	68.3	68.3	68.3	73	59.3	1	4	112	0.00	30.242 
20:15	67.9	67.9	67.9	74	59.3	1	2	112	0.00	30.243 
20:20	67.8	67.8	67.8	75	59.6	0	2	112	0.00	30.244 
20:25	67.4	67.4	67.4	75	59.2	0	2	112	0.00	30.244 
20:30	67.3	67.3	67.3	76	59.5	0	2	112	0.00	30.246 
20:35	66.9	66.9	66.9	77	59.4	1	2	112	0.00	30.246 
20:40	66.9	66.9	66.9	77	59.4	1	4	112	0.00	30.247 
20:45	66.8	66.8	66.8	77	59.3	1	3	112	0.00	30.247 
20:50	66.8	66.8	66.8	77	59.3	1	4	90	0.00	30.248 
20:55	66.6	66.6	66.6	78	59.5	1	3	68	0.00	30.247 
21:00	66.4	66.4	66.4	78	59.3	0	2	112	0.00	30.248 
21:05	66.3	66.3	66.3	79	59.6	1	2	112	0.00	30.242 
21:10	66.1	66.1	66.1	79	59.4	1	2	112	0.00	30.242 
21:15	65.8	65.8	65.8	80	59.5	0	2	112	0.00	30.244 
21:20	65.6	65.6	65.6	80	59.3	0	2	112	0.00	30.244 
21:25	65.5	65.5	65.5	81	59.5	1	3	112	0.00	30.243 
21:30	65.5	65.5	65.5	81	59.5	1	2	112	0.00	30.245 
21:35	65.5	65.5	65.5	81	59.5	1	3	112	0.00	30.246 
21:40	65.3	65.3	65.3	81	59.3	1	2	112	0.00	30.251 
21:45	65.3	65.3	65.3	81	59.3	1	2	90	0.00	30.253 
21:50	65.3	65.3	65.3	82	59.7	1	4	90	0.00	30.254 
21:55	65.2	65.2	65.2	82	59.6	1	3	90	0.00	30.254 
22:00	65.0	65.0	65.0	82	59.4	1	3	90	0.00	30.254 
22:05	64.8	64.8	64.8	82	59.2	0	2	90	0.00	30.251 
22:10	64.5	64.5	64.5	83	59.2	0	2	90	0.00	30.251 
22:15	64.3	64.3	64.3	84	59.4	1	2	90	0.00	30.254 
22:20	64.2	64.2	64.2	84	59.3	0	2	90	0.00	30.255 
22:25	64.0	64.0	64.0	84	59.1	0	2	90	0.00	30.255 
22:30	63.9	63.9	63.9	84	59.0	0	1	90	0.00	30.256 
22:35	63.7	63.7	63.7	85	59.1	0	2	90	0.00	30.259 
22:40	63.4	63.4	63.4	85	58.8	0	1	90	0.00	30.259 
22:45	63.2	63.2	63.2	86	58.9	0	1	90	0.00	30.259 
22:50	63.1	63.1	63.1	86	58.8	0	3	90	0.00	30.258 
22:55	62.9	62.9	62.9	87	59.0	0	2	90	0.00	30.258 
23:00	62.7	62.7	62.7	87	58.8	0	3	90	0.00	30.259 
23:05	62.6	62.6	62.6	87	58.7	1	3	90	0.00	30.261 
23:10	62.6	62.6	62.6	88	59.0	1	3	90	0.00	30.262 
23:15	62.4	62.4	62.4	88	58.8	0	1	90	0.00	30.264 
23:20	62.3	62.3	62.3	88	58.7	1	3	90	0.00	30.265 
23:25	62.1	62.1	62.1	88	58.5	1	2	90	0.00	30.264 
23:30	62.1	62.1	62.1	88	58.5	0	2	90	0.00	30.263 
23:35	62.0	62.0	62.0	88	58.4	0	2	90	0.00	30.264 
23:40	61.8	61.8	61.8	89	58.5	0	1	90	0.00	30.264 
23:45	61.8	61.8	61.8	89	58.5	0	1	90	0.00	30.263 
23:50	61.6	61.6	61.6	89	58.3	0	3	90	0.00	30.265 
23:55	61.6	61.6	61.6	90	58.6	0	2	90	0.00	30.263 

CoCoRaHS
IN-AL-39
A2 Web Hosting
Creative Commons License
GoDaddy
Look for:

loaded 2017-10-17 18:07:29 • last modified 2010-11-18 10:43:29
Privacy PolicyDisclaimer
• wx.awcolley.com is powered by PmWiki v.2002016 •
• all content (unless otherwise noted) © 2017 A W Colley